Time;durP1;ratioP1;P1;durP2;ratioP2;P2;SDS_P1;SDS_P2;PMS_P1;PMS_P2;Temp;Humidity;BMP_temperature;BMP_pressure;BME280_temperature;BME280_humidity;BME280_pressure;Samples;Min_cycle;Max_cycle;Signal;HPM_P1;HPM_P2
2021/07/27 00:01:50;;;;;;;4.57;3.80;;;;;;;20.07;75.27;100165.31;5036028;28;21018;-78
2021/07/27 00:04:15;;;;;;;6.73;3.93;;;;;;;20.07;75.15;100168.06;5014572;28;20553;-78
2021/07/27 00:06:40;;;;;;;4.00;3.70;;;;;;;20.08;74.90;100169.72;5034615;28;20410;-78
2021/07/27 00:09:06;;;;;;;3.83;3.47;;;;;;;20.10;74.91;100170.19;5038543;28;20738;-78
2021/07/27 00:11:31;;;;;;;3.60;3.30;;;;;;;20.13;75.10;100162.13;5027011;28;20413;-78
2021/07/27 00:13:56;;;;;;;3.92;3.45;;;;;;;20.17;74.10;100165.06;5017947;28;20467;-78
2021/07/27 00:16:22;;;;;;;6.90;3.67;;;;;;;20.19;74.13;100163.63;5035116;28;20468;-78
2021/07/27 00:18:47;;;;;;;5.30;3.77;;;;;;;20.23;74.18;100163.78;5034869;28;20425;-78
2021/07/27 00:21:12;;;;;;;6.80;4.33;;;;;;;20.24;74.25;100164.63;5040458;28;20411;-78
2021/07/27 00:23:38;;;;;;;5.50;3.67;;;;;;;20.22;74.58;100162.16;5031549;28;20411;-78
2021/07/27 00:26:13;;;;;;;3.95;3.65;;;;;;;20.21;74.50;100163.31;5033545;28;20504;-79
2021/07/27 00:28:39;;;;;;;3.92;3.55;;;;;;;20.20;74.60;100169.94;5034133;28;20494;-78
2021/07/27 00:31:04;;;;;;;4.53;3.87;;;;;;;20.21;74.51;100171.56;5044159;28;20498;-78
2021/07/27 00:33:30;;;;;;;5.07;3.37;;;;;;;20.20;74.89;100173.50;5036859;28;20401;-78
2021/07/27 00:35:55;;;;;;;6.30;3.72;;;;;;;20.19;75.03;100176.56;5015611;28;20890;-78
2021/07/27 00:38:22;;;;;;;4.40;3.93;;;;;;;20.19;75.25;100173.81;5040951;28;20844;-78
2021/07/27 00:40:48;;;;;;;5.38;4.35;;;;;;;20.18;75.18;100183.22;5038673;28;20992;-78
2021/07/27 00:43:15;;;;;;;3.80;3.50;;;;;;;20.15;74.82;100179.13;5032523;28;20430;-78
2021/07/27 00:45:41;;;;;;;4.82;4.30;;;;;;;20.12;74.76;100184.47;5031144;28;20829;-78
2021/07/27 00:48:07;;;;;;;4.47;4.00;;;;;;;20.11;74.79;100177.34;5033887;28;20498;-78
2021/07/27 00:50:32;;;;;;;3.97;3.57;;;;;;;20.10;74.65;100175.69;5033368;28;20759;-78
2021/07/27 00:53:03;;;;;;;6.63;3.55;;;;;;;20.09;74.76;100174.88;5035838;28;20417;-78
2021/07/27 00:55:29;;;;;;;4.25;3.85;;;;;;;20.08;74.69;100176.03;5015081;28;20395;-78
2021/07/27 00:57:55;;;;;;;4.13;3.70;;;;;;;20.01;74.58;100175.66;5039329;28;20415;-78
2021/07/27 01:00:23;;;;;;;4.45;3.53;;;;;;;19.94;74.54;100182.72;5039658;28;20421;-78
2021/07/27 01:02:48;;;;;;;8.73;3.88;;;;;;;19.88;74.65;100184.78;5031397;28;20434;-78
2021/07/27 01:05:14;;;;;;;4.00;3.53;;;;;;;19.87;74.56;100188.66;5039718;28;20942;-78
2021/07/27 01:07:41;;;;;;;6.03;4.07;;;;;;;19.81;74.76;100178.09;5042288;28;20497;-78
2021/07/27 01:10:08;;;;;;;5.50;3.33;;;;;;;19.75;75.00;100182.09;5034365;28;20410;-78
2021/07/27 01:12:33;;;;;;;4.28;3.90;;;;;;;19.72;75.03;100183.53;5038857;28;20895;-78
2021/07/27 01:15:03;;;;;;;5.90;3.90;;;;;;;19.71;74.98;100176.41;5042516;28;20430;-78
2021/07/27 01:17:28;;;;;;;5.95;4.65;;;;;;;19.65;75.18;100172.16;5013532;28;20450;-78
2021/07/27 01:20:05;;;;;;;5.60;3.63;;;;;;;19.63;75.25;100171.66;5031474;28;20941;-78
2021/07/27 01:43:47;;;;;;;6.83;4.20;;;;;;;19.48;75.64;100178.34;5023230;28;20811;-78
2021/07/27 01:46:15;;;;;;;8.83;4.63;;;;;;;19.50;75.89;100181.56;5030680;28;20446;-78
2021/07/27 01:48:40;;;;;;;5.82;4.10;;;;;;;19.55;75.45;100183.41;5031514;28;20403;-78
2021/07/27 01:51:05;;;;;;;8.00;4.33;;;;;;;19.56;75.46;100163.84;5032773;28;20403;-78
2021/07/27 01:53:43;;;;;;;5.07;4.33;;;;;;;19.60;75.20;100167.59;5030194;28;20497;-78
2021/07/27 01:56:10;;;;;;;5.60;4.30;;;;;;;19.63;75.03;100166.97;5032975;28;20835;-78
2021/07/27 01:58:35;;;;;;;5.78;4.95;;;;;;;19.59;75.20;100179.69;5031609;28;20905;-78
2021/07/27 02:01:00;;;;;;;5.23;4.70;;;;;;;19.55;75.18;100177.91;5031371;28;20403;-78
2021/07/27 02:03:26;;;;;;;6.83;4.30;;;;;;;19.53;75.14;100178.19;5030656;28;20395;-78
2021/07/27 02:05:51;;;;;;;5.43;4.70;;;;;;;19.49;75.36;100184.66;5034861;28;20766;-78
2021/07/27 02:08:16;;;;;;;6.73;5.27;;;;;;;19.47;75.54;100182.19;5031143;28;20407;-78
2021/07/27 02:10:45;;;;;;;6.17;4.97;;;;;;;19.50;75.63;100180.75;5031764;28;20413;-78
2021/07/27 02:13:15;;;;;;;5.30;4.65;;;;;;;19.51;75.19;100174.97;5040703;28;20401;-78
2021/07/27 02:15:42;;;;;;;7.30;4.78;;;;;;;19.51;75.38;100177.72;5036934;28;20409;-78
2021/07/27 02:18:08;;;;;;;6.38;4.80;;;;;;;19.48;75.39;100167.34;5030660;28;20418;-78
2021/07/27 02:20:33;;;;;;;7.07;4.78;;;;;;;19.48;75.31;100172.03;5015967;28;20433;-78
2021/07/27 02:22:59;;;;;;;6.30;4.40;;;;;;;19.45;75.31;100170.72;5038947;28;20478;-78
2021/07/27 02:25:24;;;;;;;6.20;4.93;;;;;;;19.43;75.28;100170.19;5036605;28;20413;-78
2021/07/27 02:27:49;;;;;;;5.53;4.63;;;;;;;19.41;75.44;100163.38;5030993;28;20403;-78
2021/07/27 02:30:15;;;;;;;5.23;4.73;;;;;;;19.43;75.51;100178.44;5033602;28;20405;-78
2021/07/27 02:32:43;;;;;;;4.70;4.28;;;;;;;19.45;75.23;100181.72;5042066;28;20394;-78
2021/07/27 02:35:09;;;;;;;8.10;5.10;;;;;;;19.47;75.07;100178.63;5034802;28;20760;-78
2021/07/27 02:37:36;;;;;;;5.95;5.05;;;;;;;19.47;75.21;100186.88;5034337;28;20415;-77
2021/07/27 02:40:05;;;;;;;5.45;4.95;;;;;;;19.44;74.88;100191.06;5035538;28;20500;-78
2021/07/27 02:42:30;;;;;;;5.38;4.88;;;;;;;19.41;75.12;100190.88;5041843;28;20462;-78
2021/07/27 02:44:55;;;;;;;9.93;4.93;;;;;;;19.39;75.73;100190.34;5035128;28;20427;-78
2021/07/27 02:47:21;;;;;;;9.40;5.73;;;;;;;19.39;75.43;100182.91;5035126;28;20422;-78
2021/07/27 02:49:46;;;;;;;6.00;4.77;;;;;;;19.38;75.57;100184.03;5035108;28;20403;-78
2021/07/27 02:52:11;;;;;;;5.23;4.73;;;;;;;19.41;75.47;100188.94;5040128;28;20446;-78
2021/07/27 02:54:38;;;;;;;5.07;4.57;;;;;;;19.41;75.26;100180.69;5037100;28;20498;-78
2021/07/27 02:57:03;;;;;;;7.17;5.30;;;;;;;19.40;75.15;100180.97;5034310;28;21042;-77
2021/07/27 02:59:28;;;;;;;6.95;4.72;;;;;;;19.37;75.40;100187.91;5034128;28;20578;-78
2021/07/27 03:01:53;;;;;;;7.47;4.67;;;;;;;19.34;75.12;100190.44;5036477;28;20411;-78
2021/07/27 03:04:19;;;;;;;6.13;4.70;;;;;;;19.34;75.21;100193.19;5038240;28;20411;-78
2021/07/27 03:06:47;;;;;;;7.97;5.25;;;;;;;19.34;75.50;100191.25;5038760;28;20868;-78
2021/07/27 03:09:26;;;;;;;5.80;4.80;;;;;;;19.38;75.43;100194.22;5041822;28;20488;-78
2021/07/27 03:11:51;;;;;;;8.05;4.93;;;;;;;19.37;75.20;100195.31;5036002;28;20409;-77
2021/07/27 03:14:17;;;;;;;6.25;5.07;;;;;;;19.31;75.16;100202.06;5035076;28;20917;-78
2021/07/27 03:16:42;;;;;;;7.50;4.90;;;;;;;19.29;75.01;100196.88;5041873;28;20445;-78
2021/07/27 03:19:08;;;;;;;6.00;4.47;;;;;;;19.33;74.88;100206.13;5047757;28;20401;-78
2021/07/27 03:21:33;;;;;;;5.47;4.70;;;;;;;19.33;74.36;100208.84;5043177;28;20764;-78
2021/07/27 03:23:58;;;;;;;6.10;4.30;;;;;;;19.29;74.17;100210.63;5043776;28;20418;-78
2021/07/27 03:26:24;;;;;;;6.47;4.20;;;;;;;19.25;74.21;100209.59;5039368;28;20449;-78
2021/07/27 03:28:50;;;;;;;10.43;4.25;;;;;;;19.22;74.03;100209.41;5035595;28;20883;-78
2021/07/27 03:31:16;;;;;;;8.98;4.85;;;;;;;19.18;74.14;100203.72;5032831;28;20415;-78
2021/07/27 03:33:42;;;;;;;5.15;4.53;;;;;;;19.15;74.04;100207.91;5041196;28;20952;-78
2021/07/27 03:36:07;;;;;;;4.40;4.00;;;;;;;19.10;74.18;100210.72;5016301;28;20752;-78
2021/07/27 03:38:33;;;;;;;7.70;4.70;;;;;;;19.08;74.29;100199.25;5017201;28;20429;-78
2021/07/27 03:41:10;;;;;;;6.45;4.22;;;;;;;19.05;74.86;100205.38;5033636;28;20926;-78
2021/07/27 03:43:36;;;;;;;5.03;4.22;;;;;;;19.04;74.99;100205.66;5027094;28;20418;-78
2021/07/27 03:46:05;;;;;;;12.68;4.50;;;;;;;19.06;74.79;100204.25;5034307;28;20395;-78
2021/07/27 03:48:30;;;;;;;11.15;6.75;;;;;;;19.05;74.85;100205.38;5014865;28;20418;-78
2021/07/27 03:50:56;;;;;;;9.70;5.40;;;;;;;19.05;74.78;100208.09;5038007;28;20403;-78
2021/07/27 03:53:22;;;;;;;7.43;5.05;;;;;;;19.06;74.93;100209.75;5032579;28;20409;-78
2021/07/27 03:55:48;;;;;;;8.40;5.15;;;;;;;19.08;75.21;100198.44;5033663;28;20482;-78
2021/07/27 03:58:13;;;;;;;8.97;4.90;;;;;;;19.11;74.96;100201.38;5031847;28;20835;-77
2021/07/27 04:00:38;;;;;;;8.53;5.63;;;;;;;19.09;74.87;100195.41;5040380;28;20457;-77
2021/07/27 04:03:05;;;;;;;7.37;5.30;;;;;;;19.06;74.88;100197.94;5033135;28;20889;-78
2021/07/27 04:05:34;;;;;;;7.60;4.93;;;;;;;19.04;74.82;100195.50;5037801;28;20416;-78
2021/07/27 04:08:00;;;;;;;7.40;4.90;;;;;;;18.99;75.16;100192.03;5037776;28;20403;-78
2021/07/27 04:10:25;;;;;;;6.32;4.60;;;;;;;18.99;75.25;100197.53;5035950;28;20420;-78
2021/07/27 04:12:51;;;;;;;8.63;4.83;;;;;;;18.95;75.33;100193.78;5039517;28;20410;-78
2021/07/27 04:15:16;;;;;;;8.32;5.07;;;;;;;18.94;75.39;100189.38;5035304;28;20403;-78
2021/07/27 04:17:41;;;;;;;7.80;4.73;;;;;;;18.97;75.61;100194.25;5040475;28;20407;-77
2021/07/27 04:20:07;;;;;;;4.87;4.40;;;;;;;18.99;75.34;100194.78;5035364;28;20409;-78
2021/07/27 04:22:32;;;;;;;8.70;4.60;;;;;;;18.98;75.14;100199.47;5032708;28;20556;-78
2021/07/27 04:24:58;;;;;;;5.33;4.30;;;;;;;18.95;75.27;100194.59;5013885;28;20419;-78
2021/07/27 04:27:24;;;;;;;10.25;5.05;;;;;;;18.96;75.56;100196.22;5040230;28;20404;-78
2021/07/27 04:29:50;;;;;;;8.63;4.85;;;;;;;18.97;75.50;100189.59;5049618;28;20451;-78
2021/07/27 04:32:15;;;;;;;5.17;4.10;;;;;;;18.99;75.52;100190.13;5031569;28;20510;-78
2021/07/27 04:34:40;;;;;;;5.80;4.33;;;;;;;19.04;75.69;100197.41;5034577;28;20414;-77
2021/07/27 04:37:06;;;;;;;5.07;4.60;;;;;;;19.06;75.17;100193.28;5034999;28;20411;-78
2021/07/27 04:39:31;;;;;;;13.13;5.83;;;;;;;19.07;75.23;100197.63;5031853;28;20886;-78
2021/07/27 04:41:56;;;;;;;5.75;4.80;;;;;;;19.05;74.85;100196.31;5027398;28;20411;-78
2021/07/27 04:44:22;;;;;;;5.70;5.00;;;;;;;19.04;75.26;100192.75;5030819;28;20395;-78
2021/07/27 04:46:47;;;;;;;8.83;4.47;;;;;;;19.02;74.91;100186.75;5032534;28;20403;-78
2021/07/27 04:49:16;;;;;;;6.55;4.35;;;;;;;19.01;75.43;100187.03;5037563;28;20405;-78
2021/07/27 04:51:42;;;;;;;5.75;4.38;;;;;;;18.99;75.17;100189.31;5032876;28;20546;-79
2021/07/27 04:54:13;;;;;;;5.03;4.43;;;;;;;19.00;75.25;100188.19;5028891;28;20488;-78
2021/07/27 04:56:38;;;;;;;9.30;4.50;;;;;;;19.07;74.65;100191.31;5031309;28;20418;-79
2021/07/27 04:59:03;;;;;;;6.00;4.40;;;;;;;19.13;74.74;100188.16;5028193;28;20407;-78
2021/07/27 05:01:29;;;;;;;8.60;5.00;;;;;;;19.16;75.03;100194.97;5032398;28;20407;-78
2021/07/27 05:03:58;;;;;;;8.47;5.57;;;;;;;19.18;74.78;100182.56;5020338;28;20417;-78
2021/07/27 05:06:24;;;;;;;5.00;4.50;;;;;;;19.25;74.30;100178.56;5028964;28;20419;-78
2021/07/27 05:08:49;;;;;;;6.60;4.43;;;;;;;19.23;74.32;100167.91;5032726;28;20925;-78
2021/07/27 05:11:14;;;;;;;6.27;5.67;;;;;;;19.16;74.60;100162.81;5030987;28;20481;-78
2021/07/27 05:13:40;;;;;;;7.73;4.37;;;;;;;19.19;74.78;100164.13;5030508;28;20398;-78
2021/07/27 05:16:06;;;;;;;7.40;4.50;;;;;;;19.24;75.04;100166.75;5028310;28;20640;-78
2021/07/27 05:18:31;;;;;;;5.37;4.70;;;;;;;19.31;74.50;100161.66;5033031;28;20914;-78
2021/07/27 05:20:56;;;;;;;5.17;4.77;;;;;;;19.42;74.30;100168.59;5032388;28;20414;-78
2021/07/27 05:23:24;;;;;;;5.90;4.80;;;;;;;19.45;74.45;100156.97;5029070;28;20419;-78
2021/07/27 05:25:49;;;;;;;5.18;4.68;;;;;;;19.52;74.52;100162.03;5027463;28;20752;-78
2021/07/27 05:28:14;;;;;;;5.07;4.63;;;;;;;19.58;74.46;100158.03;5024595;28;20425;-79
2021/07/27 05:30:39;;;;;;;4.70;4.30;;;;;;;19.63;74.56;100152.41;5023928;28;20751;-78
2021/07/27 05:33:05;;;;;;;5.50;5.00;;;;;;;19.72;74.35;100157.97;5022955;28;20415;-78
2021/07/27 05:35:39;;;;;;;6.10;4.20;;;;;;;19.78;74.50;100157.53;5023896;28;20407;-76
2021/07/27 05:38:04;;;;;;;8.20;4.93;;;;;;;19.83;74.38;100153.84;5027797;28;20414;-77
2021/07/27 05:40:31;;;;;;;7.80;5.00;;;;;;;19.85;74.32;100152.41;5022724;28;20413;-78
2021/07/27 05:43:00;;;;;;;8.65;6.00;;;;;;;19.92;74.36;100150.00;5036236;28;20393;-77
2021/07/27 05:45:26;;;;;;;5.57;4.70;;;;;;;19.95;74.41;100151.34;5028386;28;20423;-77
2021/07/27 05:47:52;;;;;;;7.47;4.77;;;;;;;19.99;74.27;100155.09;5030969;28;20411;-76
2021/07/27 05:50:19;;;;;;;8.57;4.93;;;;;;;20.06;74.52;100156.25;5014709;28;20476;-77
2021/07/27 05:52:44;;;;;;;6.50;4.90;;;;;;;20.17;74.35;100151.31;5035275;28;20757;-77
2021/07/27 05:55:10;;;;;;;6.10;4.43;;;;;;;20.23;73.97;100158.28;5031066;28;20486;-76
2021/07/27 05:57:36;;;;;;;9.43;5.85;;;;;;;20.29;73.76;100159.81;5031096;28;20893;-77
2021/07/27 06:00:01;;;;;;;5.47;4.90;;;;;;;20.32;73.64;100152.88;5030774;28;20422;-77
2021/07/27 06:02:27;;;;;;;6.05;4.60;;;;;;;20.36;74.07;100156.59;5031260;28;20464;-77
2021/07/27 06:04:52;;;;;;;5.32;4.82;;;;;;;20.37;74.14;100153.53;5032145;28;20421;-77
2021/07/27 06:07:17;;;;;;;7.23;5.17;;;;;;;20.45;73.66;100154.72;5034352;28;20415;-77
2021/07/27 06:09:43;;;;;;;6.00;4.40;;;;;;;20.50;73.09;100157.31;5035530;28;21043;-77
2021/07/27 06:12:09;;;;;;;6.10;4.50;;;;;;;20.50;72.51;100168.31;5034845;28;20544;-77
2021/07/27 06:14:34;;;;;;;5.63;5.13;;;;;;;20.52;72.88;100163.31;5034594;28;20410;-76
2021/07/27 06:16:59;;;;;;;7.00;4.73;;;;;;;20.52;73.61;100174.31;5034903;28;21812;-77
2021/07/27 06:19:25;;;;;;;6.23;4.93;;;;;;;20.54;74.11;100178.41;5035601;28;20408;-77
2021/07/27 06:21:51;;;;;;;5.70;5.07;;;;;;;20.57;73.76;100171.44;5034317;28;20966;-77
2021/07/27 06:24:17;;;;;;;7.70;5.43;;;;;;;20.60;73.54;100166.13;5033220;28;20510;-77
2021/07/27 06:26:42;;;;;;;8.05;5.68;;;;;;;20.61;73.25;100166.94;5031878;28;20797;-77
2021/07/27 06:29:18;;;;;;;6.57;4.80;;;;;;;20.65;73.04;100163.19;5033981;28;20410;-77
2021/07/27 06:31:46;;;;;;;9.00;4.97;;;;;;;20.74;72.49;100174.25;5033608;28;20399;-77
2021/07/27 06:34:11;;;;;;;5.70;5.20;;;;;;;20.78;71.75;100172.47;5010075;28;20399;-76
2021/07/27 06:36:37;;;;;;;6.10;5.40;;;;;;;20.84;71.95;100173.97;5046832;28;20432;-76
2021/07/27 06:39:02;;;;;;;6.50;4.57;;;;;;;20.90;72.38;100178.19;5036090;28;20900;-76
2021/07/27 06:41:31;;;;;;;6.97;5.00;;;;;;;20.91;72.16;100168.78;5032246;28;20395;-77
2021/07/27 06:43:57;;;;;;;5.10;4.65;;;;;;;20.91;72.25;100168.00;5016029;28;20399;-77
2021/07/27 06:46:22;;;;;;;5.40;4.70;;;;;;;20.95;72.34;100169.78;5032372;28;20482;-77
2021/07/27 06:48:48;;;;;;;5.03;4.40;;;;;;;20.99;72.47;100175.44;5031504;28;20486;-77
2021/07/27 06:51:15;;;;;;;5.30;4.80;;;;;;;21.02;72.42;100172.06;5030454;28;20407;-76
2021/07/27 06:53:41;;;;;;;6.30;4.50;;;;;;;21.11;72.14;100175.66;5048304;28;20405;-77
2021/07/27 06:56:08;;;;;;;7.13;4.68;;;;;;;21.22;71.62;100177.00;5016310;28;20894;-77
2021/07/27 06:58:34;;;;;;;5.43;4.30;;;;;;;21.31;70.81;100179.75;5027682;28;20519;-76
2021/07/27 07:01:04;;;;;;;4.55;4.18;;;;;;;21.37;71.09;100179.25;5025677;28;20427;-76
2021/07/27 07:03:45;;;;;;;4.63;4.22;;;;;;;21.35;69.92;100186.25;5025867;28;20503;-77
2021/07/27 07:06:15;;;;;;;6.22;4.55;;;;;;;21.42;70.10;100187.38;5015746;28;20894;-76
2021/07/27 07:08:41;;;;;;;5.03;4.07;;;;;;;21.50;69.65;100189.34;5030821;28;20902;-76
2021/07/27 07:11:07;;;;;;;9.77;3.97;;;;;;;21.57;68.73;100189.66;5029174;28;20438;-76
2021/07/27 07:13:32;;;;;;;5.00;4.50;;;;;;;21.53;68.82;100183.19;5008262;28;20916;-76
2021/07/27 07:15:58;;;;;;;8.57;4.43;;;;;;;21.49;67.61;100190.47;5024467;28;20449;-76
2021/07/27 07:18:24;;;;;;;6.03;4.75;;;;;;;21.54;68.96;100193.06;5028173;28;20423;-76
2021/07/27 07:20:51;;;;;;;5.87;5.10;;;;;;;21.59;69.38;100195.69;5029682;28;20770;-76
2021/07/27 07:23:17;;;;;;;7.40;4.80;;;;;;;21.64;69.83;100200.19;5032307;28;20398;-77
2021/07/27 07:25:43;;;;;;;5.15;4.30;;;;;;;21.69;69.20;100198.09;4971885;28;1729062;-77
2021/07/27 07:28:14;;;;;;;4.43;4.03;;;;;;;21.70;68.18;100196.94;5031343;28;20839;-77
2021/07/27 07:30:40;;;;;;;4.72;4.25;;;;;;;21.70;67.50;100191.44;5031860;28;20451;-76
2021/07/27 07:33:06;;;;;;;6.00;4.30;;;;;;;21.77;67.77;100196.47;5032236;28;20442;-76
2021/07/27 07:35:31;;;;;;;6.10;4.80;;;;;;;21.83;67.50;100195.19;5016322;28;20403;-76
2021/07/27 07:37:57;;;;;;;5.03;4.10;;;;;;;21.92;66.78;100206.22;5032670;28;20946;-76
2021/07/27 07:40:22;;;;;;;4.93;4.30;;;;;;;21.91;66.24;100204.59;5015168;28;20413;-77
2021/07/27 07:42:48;;;;;;;6.90;4.00;;;;;;;21.95;66.61;100200.06;5033525;28;20952;-77
2021/07/27 07:45:14;;;;;;;4.67;4.13;;;;;;;21.92;66.05;100206.22;5032073;28;20411;-78
2021/07/27 07:47:41;;;;;;;5.15;4.65;;;;;;;21.86;66.83;100208.31;5015035;28;20430;-77
2021/07/27 07:50:06;;;;;;;6.35;4.28;;;;;;;21.76;66.76;100205.91;5033351;28;20882;-78
2021/07/27 07:52:32;;;;;;;7.73;4.57;;;;;;;21.76;66.87;100197.63;5040003;28;20457;-77
2021/07/27 07:54:57;;;;;;;4.30;4.00;;;;;;;21.74;67.34;100197.94;5011442;28;20422;-77
2021/07/27 07:57:23;;;;;;;3.97;3.72;;;;;;;21.78;66.43;100194.53;5030199;28;20513;-78
2021/07/27 07:59:48;;;;;;;4.97;4.13;;;;;;;21.90;66.45;100192.75;5028645;28;20469;-78
2021/07/27 08:02:13;;;;;;;4.57;3.87;;;;;;;21.98;66.16;100193.88;5014862;28;20431;-77
2021/07/27 08:04:39;;;;;;;4.30;3.90;;;;;;;22.05;66.10;100196.97;5030376;28;20461;-78
2021/07/27 08:07:06;;;;;;;5.63;4.87;;;;;;;22.02;65.17;100201.19;5031763;28;20403;-77
2021/07/27 08:09:31;;;;;;;4.40;4.00;;;;;;;22.03;66.02;100199.25;5015668;28;20890;-78
2021/07/27 08:11:57;;;;;;;6.80;4.67;;;;;;;22.05;65.94;100188.69;5030041;28;20452;-78
2021/07/27 08:14:23;;;;;;;7.63;4.30;;;;;;;22.12;66.36;100189.81;5032813;28;20426;-77
2021/07/27 08:16:51;;;;;;;4.45;4.05;;;;;;;22.19;66.00;100181.03;5031732;28;20453;-78
2021/07/27 08:19:16;;;;;;;6.45;4.30;;;;;;;22.28;66.47;100192.03;5033035;28;20391;-77
2021/07/27 08:21:41;;;;;;;5.30;4.30;;;;;;;22.34;66.13;100193.47;5032638;28;20766;-77
2021/07/27 08:24:07;;;;;;;4.65;4.20;;;;;;;22.39;66.24;100190.56;5032478;28;20484;-77
2021/07/27 08:26:32;;;;;;;5.13;4.30;;;;;;;22.41;65.59;100188.25;5039790;28;20453;-78
2021/07/27 08:28:57;;;;;;;6.27;3.80;;;;;;;22.35;64.30;100189.59;5030836;28;20459;-78
2021/07/27 08:31:23;;;;;;;6.63;3.70;;;;;;;22.28;64.57;100192.03;5032549;28;20399;-78
2021/07/27 08:33:48;;;;;;;4.40;4.00;;;;;;;22.32;65.48;100204.06;5032290;28;20426;-77
2021/07/27 08:36:13;;;;;;;6.23;3.93;;;;;;;22.39;63.82;100193.31;5029263;28;20886;-78
2021/07/27 08:38:39;;;;;;;5.10;4.20;;;;;;;22.48;65.31;100189.38;5031844;28;20423;-78
2021/07/27 08:41:06;;;;;;;4.13;3.83;;;;;;;22.55;63.99;100192.44;5032169;28;20779;-78
2021/07/27 08:43:34;;;;;;;4.40;4.10;;;;;;;22.64;64.29;100195.16;5032948;28;20997;-78
2021/07/27 08:46:03;;;;;;;4.00;3.70;;;;;;;22.69;63.71;100195.00;5028747;28;20481;-77
2021/07/27 08:48:31;;;;;;;4.03;3.72;;;;;;;22.78;62.95;100198.56;5034688;28;20440;-80
2021/07/27 08:50:58;;;;;;;4.22;3.88;;;;;;;22.89;62.51;100187.91;5033830;28;20435;-77
2021/07/27 08:53:27;;;;;;;5.40;4.25;;;;;;;23.09;61.32;100189.91;5051571;28;20389;-76
2021/07/27 08:55:53;;;;;;;7.93;4.10;;;;;;;23.31;60.44;100192.41;5032205;28;20903;-77
2021/07/27 08:58:18;;;;;;;4.43;4.03;;;;;;;23.63;60.71;100204.69;5031962;28;20419;-77
2021/07/27 09:00:43;;;;;;;4.13;3.80;;;;;;;23.82;59.53;100196.72;5031866;28;20406;-77
2021/07/27 09:03:18;;;;;;;4.47;3.77;;;;;;;23.92;58.05;100199.06;5032083;28;20422;-77
2021/07/27 09:05:45;;;;;;;5.20;4.38;;;;;;;24.08;58.17;100204.78;5047231;28;20740;-78
2021/07/27 09:08:11;;;;;;;4.18;3.78;;;;;;;24.12;58.22;100197.44;5019424;28;20427;-77
2021/07/27 09:10:39;;;;;;;4.38;3.97;;;;;;;24.19;58.12;100187.44;5031856;28;20735;-77
2021/07/27 09:13:06;;;;;;;5.03;4.47;;;;;;;24.20;57.83;100191.03;5033702;28;20409;-78
2021/07/27 09:15:34;;;;;;;4.72;4.00;;;;;;;24.20;58.25;100191.81;5034163;28;20407;-77
2021/07/27 09:18:07;;;;;;;3.90;3.70;;;;;;;24.26;57.02;100198.78;5028909;28;20790;-77
2021/07/27 09:20:39;;;;;;;3.80;3.50;;;;;;;24.35;57.04;100198.66;5039615;28;20814;-77
2021/07/27 09:23:12;;;;;;;4.93;3.43;;;;;;;24.44;57.30;100201.31;5032492;28;20760;-78
2021/07/27 09:25:43;;;;;;;3.47;3.25;;;;;;;24.59;56.16;100195.94;5046199;28;20444;-79
2021/07/27 09:28:09;;;;;;;4.60;3.70;;;;;;;24.75;54.73;100196.06;5050700;28;20479;-79
2021/07/27 09:30:40;;;;;;;3.53;3.33;;;;;;;24.81;54.87;100200.22;5045457;28;20779;-78
2021/07/27 09:33:07;;;;;;;5.03;3.80;;;;;;;24.93;55.43;100197.47;5032944;28;20799;-78
2021/07/27 09:35:33;;;;;;;5.82;4.10;;;;;;;25.03;55.43;100196.19;5038240;28;20419;-78
2021/07/27 09:38:05;;;;;;;4.68;4.10;;;;;;;25.07;54.27;100194.34;5050117;28;20409;-79
2021/07/27 09:40:32;;;;;;;5.43;3.83;;;;;;;25.17;54.81;100202.19;5030889;28;20491;-79
2021/07/27 09:43:00;;;;;;;6.40;4.22;;;;;;;25.15;55.62;100202.56;5047497;28;20459;-79
2021/07/27 09:45:26;;;;;;;4.10;3.70;;;;;;;25.00;54.54;100194.94;5032251;28;20454;-78
2021/07/27 09:47:53;;;;;;;4.40;4.00;;;;;;;24.84;54.99;100191.25;5034418;28;20415;-77
2021/07/27 09:50:21;;;;;;;4.18;3.88;;;;;;;24.72;55.70;100197.56;5013690;28;20728;-79
2021/07/27 09:52:46;;;;;;;9.40;3.70;;;;;;;24.66;55.74;100189.84;4996933;28;20758;-79
2021/07/27 09:55:13;;;;;;;4.03;3.73;;;;;;;24.60;55.56;100194.78;5044028;28;20418;-79
2021/07/27 09:57:38;;;;;;;3.75;3.45;;;;;;;24.56;56.64;100198.59;5031271;28;20415;-78
2021/07/27 10:00:04;;;;;;;3.73;3.43;;;;;;;24.55;56.76;100195.00;5039828;28;20424;-78
2021/07/27 10:02:47;;;;;;;3.92;3.63;;;;;;;24.48;57.12;100197.53;5032816;28;20467;-78
2021/07/27 10:05:19;;;;;;;3.72;3.45;;;;;;;24.45;57.11;100200.19;5018253;28;20854;-79
2021/07/27 10:07:54;;;;;;;4.60;4.20;;;;;;;24.40;55.97;100201.22;5020044;28;20420;-78
2021/07/27 10:10:33;;;;;;;5.00;3.80;;;;;;;24.40;56.87;100200.41;5037867;28;20439;-78
2021/07/27 10:13:13;;;;;;;4.57;3.72;;;;;;;24.45;57.51;100201.00;5027831;28;20417;-78
2021/07/27 10:15:45;;;;;;;4.53;3.70;;;;;;;24.64;57.23;100201.25;5012462;28;20426;-77
2021/07/27 10:18:12;;;;;;;4.35;4.00;;;;;;;25.18;56.95;100209.38;5029285;28;20525;-77
2021/07/27 10:20:38;;;;;;;3.67;3.38;;;;;;;26.14;53.71;100201.94;5030586;28;20407;-78
2021/07/27 10:23:14;;;;;;;6.63;3.65;;;;;;;26.78;51.13;100199.69;5031108;28;20406;-78
2021/07/27 10:25:39;;;;;;;3.50;3.20;;;;;;;27.05;49.96;100205.53;5030777;28;20426;-77
2021/07/27 10:28:05;;;;;;;4.63;3.57;;;;;;;27.57;48.59;100200.41;5030108;28;20419;-79
2021/07/27 10:30:36;;;;;;;5.47;3.67;;;;;;;28.18;47.06;100206.06;5029553;28;20410;-79
2021/07/27 10:33:02;;;;;;;3.83;3.53;;;;;;;27.96;46.99;100203.22;5030868;28;20399;-79
2021/07/27 10:35:34;;;;;;;5.22;3.95;;;;;;;27.58;47.68;100199.25;5020908;28;20403;-79
2021/07/27 10:38:13;;;;;;;5.00;4.00;;;;;;;27.36;48.81;100201.88;5030597;28;20509;-79
2021/07/27 10:40:40;;;;;;;5.45;3.40;;;;;;;27.50;49.13;100191.88;5029417;28;20464;-79
2021/07/27 10:43:09;;;;;;;4.10;3.53;;;;;;;27.75;47.14;100196.03;5030693;28;20500;-79
2021/07/27 10:45:35;;;;;;;3.90;3.70;;;;;;;27.29;48.24;100199.75;5022409;28;20395;-78
2021/07/27 10:48:02;;;;;;;4.35;3.60;;;;;;;26.78;50.55;100196.91;5029271;28;20494;-78
2021/07/27 10:50:30;;;;;;;4.33;3.97;;;;;;;26.28;51.45;100191.22;5013456;28;20399;-79
2021/07/27 10:53:10;;;;;;;3.83;3.53;;;;;;;25.88;51.39;100187.72;5034047;28;20611;-79
2021/07/27 10:55:43;;;;;;;5.10;3.83;;;;;;;25.59;52.68;100181.34;5033688;28;20442;-79
2021/07/27 10:58:16;;;;;;;3.80;3.60;;;;;;;25.41;54.12;100177.22;5034085;28;20429;-79
2021/07/27 11:00:42;;;;;;;4.65;4.25;;;;;;;25.28;54.33;100172.84;5027309;28;20410;-79
2021/07/27 11:03:07;;;;;;;3.90;3.60;;;;;;;25.23;54.71;100173.88;5034239;28;20399;-79
2021/07/27 11:05:34;;;;;;;5.63;3.60;;;;;;;25.34;55.25;100163.13;5031973;28;20403;-78
2021/07/27 11:07:59;;;;;;;3.97;3.63;;;;;;;25.55;53.29;100157.44;5038290;28;20401;-78
2021/07/27 11:10:26;;;;;;;4.20;3.70;;;;;;;25.88;52.43;100160.78;5033163;28;20399;-79
2021/07/27 11:12:52;;;;;;;5.72;4.00;;;;;;;26.01;51.60;100161.50;5031003;28;20409;-79
2021/07/27 11:15:19;;;;;;;4.13;3.83;;;;;;;26.06;51.20;100164.03;5048667;28;20404;-80
2021/07/27 11:17:59;;;;;;;3.92;3.70;;;;;;;26.10;50.92;100156.59;5034107;28;20841;-78
2021/07/27 11:20:30;;;;;;;3.93;3.63;;;;;;;26.01;51.23;100161.50;5033760;28;20418;-78
2021/07/27 11:23:07;;;;;;;4.00;3.70;;;;;;;25.85;51.20;100152.34;5032798;28;20418;-79
2021/07/27 11:25:33;;;;;;;4.13;3.83;;;;;;;25.78;51.17;100139.84;5033295;28;20423;-79
2021/07/27 11:28:15;;;;;;;6.60;3.83;;;;;;;25.85;52.33;100139.28;5033345;28;20801;-79
2021/07/27 11:30:42;;;;;;;4.90;3.80;;;;;;;26.20;53.04;100142.22;5031347;28;20418;-78
2021/07/27 11:33:12;;;;;;;4.13;3.40;;;;;;;26.55;51.14;100140.34;5032962;28;20457;-79
2021/07/27 11:35:51;;;;;;;3.83;3.53;;;;;;;26.83;49.63;100142.25;5033262;28;20399;-78
2021/07/27 11:38:23;;;;;;;4.07;3.67;;;;;;;26.93;49.69;100138.91;5033263;28;20504;-79
2021/07/27 11:41:03;;;;;;;3.70;3.40;;;;;;;27.03;49.91;100146.69;5038901;28;20411;-79
2021/07/27 11:43:41;;;;;;;4.53;3.60;;;;;;;27.11;49.07;100149.25;5032583;28;20763;-80
2021/07/27 11:46:17;;;;;;;4.00;3.70;;;;;;;27.68;48.71;100145.75;5031124;28;20845;-80